sensor_id;sensor_type;location;lat;lon;timestamp;pressure;altitude;pressure_sealevel;temperature;humidity
15260;BME280;34462;51.368;12.364;2022-12-16T00:01:14;18586.50;;;-141.84;73.12
15260;BME280;34462;51.368;12.364;2022-12-16T00:03:47;18560.06;;;-141.84;73.78
15260;BME280;34462;51.368;12.364;2022-12-16T00:06:18;18556.00;;;-141.84;74.89
15260;BME280;34462;51.368;12.364;2022-12-16T00:08:48;18560.06;;;-141.84;73.49
15260;BME280;34462;51.368;12.364;2022-12-16T00:11:18;18580.41;;;-141.84;72.92
15260;BME280;34462;51.368;12.364;2022-12-16T00:13:46;18584.47;;;-141.84;72.98
15260;BME280;34462;51.368;12.364;2022-12-16T00:16:17;18586.50;;;-141.84;72.70
15260;BME280;34462;51.368;12.364;2022-12-16T00:18:46;18562.09;;;-141.84;73.25
15260;BME280;34462;51.368;12.364;2022-12-16T00:21:15;18529.59;;;-141.84;73.76
15260;BME280;34462;51.368;12.364;2022-12-16T00:23:44;18566.16;;;-141.84;73.73
15260;BME280;34462;51.368;12.364;2022-12-16T00:26:14;18551.94;;;-141.84;74.46
15260;BME280;34462;51.368;12.364;2022-12-16T00:28:43;18564.13;;;-141.84;74.90
15260;BME280;34462;51.368;12.364;2022-12-16T00:31:11;18553.97;;;-141.84;74.98
15260;BME280;34462;51.368;12.364;2022-12-16T00:33:39;18566.16;;;-141.84;74.54
15260;BME280;34462;51.368;12.364;2022-12-16T00:36:08;18553.97;;;-141.84;73.87
15260;BME280;34462;51.368;12.364;2022-12-16T00:38:37;18562.09;;;-141.84;73.34
15260;BME280;34462;51.368;12.364;2022-12-16T00:41:05;18596.66;;;-141.84;73.06
15260;BME280;34462;51.368;12.364;2022-12-16T00:43:35;18594.63;;;-141.84;72.31
15260;BME280;34462;51.368;12.364;2022-12-16T00:46:03;18562.09;;;-141.84;72.38
15260;BME280;34462;51.368;12.364;2022-12-16T00:48:31;18574.28;;;-141.84;72.83
15260;BME280;34462;51.368;12.364;2022-12-16T00:51:00;18568.19;;;-141.84;72.40
15260;BME280;34462;51.368;12.364;2022-12-16T00:53:28;18592.59;;;-141.84;73.18
15260;BME280;34462;51.368;12.364;2022-12-16T00:56:06;18560.06;;;-141.84;73.47
15260;BME280;34462;51.368;12.364;2022-12-16T00:58:36;18566.16;;;-141.84;73.41
15260;BME280;34462;51.368;12.364;2022-12-16T01:01:06;18568.19;;;-141.84;73.54
15260;BME280;34462;51.368;12.364;2022-12-16T01:03:35;18590.56;;;-141.84;73.09
15260;BME280;34462;51.368;12.364;2022-12-16T01:06:09;18582.44;;;-141.84;73.18
15260;BME280;34462;51.368;12.364;2022-12-16T01:08:38;18582.44;;;-141.84;73.13
15260;BME280;34462;51.368;12.364;2022-12-16T01:11:09;18574.28;;;-141.84;73.08
15260;BME280;34462;51.368;12.364;2022-12-16T01:13:38;18537.72;;;-141.84;73.19
15260;BME280;34462;51.368;12.364;2022-12-16T01:16:07;18572.25;;;-141.84;73.35
15260;BME280;34462;51.368;12.364;2022-12-16T01:18:35;18562.09;;;-141.84;73.78
15260;BME280;34462;51.368;12.364;2022-12-16T01:21:05;18572.25;;;-141.84;74.31
15260;BME280;34462;51.368;12.364;2022-12-16T01:23:34;18545.84;;;-141.84;75.26
15260;BME280;34462;51.368;12.364;2022-12-16T01:26:02;18558.03;;;-141.84;76.14
15260;BME280;34462;51.368;12.364;2022-12-16T01:28:31;18566.16;;;-141.84;76.83
15260;BME280;34462;51.368;12.364;2022-12-16T01:31:01;18558.03;;;-141.84;77.44
15260;BME280;34462;51.368;12.364;2022-12-16T01:33:31;18553.97;;;-141.84;77.76
15260;BME280;34462;51.368;12.364;2022-12-16T01:36:01;18586.50;;;-141.84;77.99
15260;BME280;34462;51.368;12.364;2022-12-16T01:38:30;18553.97;;;-141.84;77.97
15260;BME280;34462;51.368;12.364;2022-12-16T01:40:59;18566.16;;;-141.84;78.34
15260;BME280;34462;51.368;12.364;2022-12-16T01:43:31;18549.91;;;-141.84;78.64
15260;BME280;34462;51.368;12.364;2022-12-16T01:46:08;18537.72;;;-141.84;78.80
15260;BME280;34462;51.368;12.364;2022-12-16T01:48:46;18549.91;;;-141.84;78.17
15260;BME280;34462;51.368;12.364;2022-12-16T01:51:20;18564.13;;;-141.84;77.63
15260;BME280;34462;51.368;12.364;2022-12-16T01:53:57;18549.91;;;-141.84;77.92
15260;BME280;34462;51.368;12.364;2022-12-16T01:56:31;18545.84;;;-141.84;78.36
15260;BME280;34462;51.368;12.364;2022-12-16T01:59:02;18564.13;;;-141.84;78.56
15260;BME280;34462;51.368;12.364;2022-12-16T02:01:31;18521.47;;;-141.84;78.22
15260;BME280;34462;51.368;12.364;2022-12-16T02:04:03;18556.00;;;-141.84;78.08
15260;BME280;34462;51.368;12.364;2022-12-16T02:06:31;18549.91;;;-141.84;77.81
15260;BME280;34462;51.368;12.364;2022-12-16T02:09:03;18568.19;;;-141.84;78.04
15260;BME280;34462;51.368;12.364;2022-12-16T02:12:05;18547.88;;;-141.84;78.34
15260;BME280;34462;51.368;12.364;2022-12-16T02:15:02;18553.97;;;-141.84;78.65
15260;BME280;34462;51.368;12.364;2022-12-16T02:17:43;18553.97;;;-141.84;78.92
15260;BME280;34462;51.368;12.364;2022-12-16T02:27:39;18558.03;;;-141.84;75.92
15260;BME280;34462;51.368;12.364;2022-12-16T02:30:55;18525.53;;;-141.84;75.72
15260;BME280;34462;51.368;12.364;2022-12-16T02:33:43;18562.09;;;-141.84;75.91
15260;BME280;34462;51.368;12.364;2022-12-16T02:36:32;18541.78;;;-141.84;76.40
15260;BME280;34462;51.368;12.364;2022-12-16T02:39:13;18562.09;;;-141.84;76.21
15260;BME280;34462;51.368;12.364;2022-12-16T02:41:49;18564.13;;;-141.84;75.72
15260;BME280;34462;51.368;12.364;2022-12-16T02:44:32;18576.31;;;-141.84;74.88
15260;BME280;34462;51.368;12.364;2022-12-16T02:47:03;18551.94;;;-141.84;74.17
15260;BME280;34462;51.368;12.364;2022-12-16T02:49:47;18537.72;;;-141.84;73.73
15260;BME280;34462;51.368;12.364;2022-12-16T02:52:20;18566.16;;;-141.84;73.68
15260;BME280;34462;51.368;12.364;2022-12-16T02:54:53;18598.69;;;-141.84;73.73
15260;BME280;34462;51.368;12.364;2022-12-16T02:57:57;18600.72;;;-141.84;74.61
15260;BME280;34462;51.368;12.364;2022-12-16T03:00:36;18562.09;;;-141.84;74.07
15260;BME280;34462;51.368;12.364;2022-12-16T03:03:16;18592.59;;;-141.84;74.98
15260;BME280;34462;51.368;12.364;2022-12-16T03:05:49;18633.22;;;-141.84;75.58
15260;BME280;34462;51.368;12.364;2022-12-16T03:08:24;18584.47;;;-141.84;76.63
15260;BME280;34462;51.368;12.364;2022-12-16T03:10:59;18558.03;;;-141.84;75.52
15260;BME280;34462;51.368;12.364;2022-12-16T03:13:34;18574.28;;;-141.84;75.54
15260;BME280;34462;51.368;12.364;2022-12-16T03:16:08;18586.50;;;-141.84;75.54
15260;BME280;34462;51.368;12.364;2022-12-16T03:18:43;18588.53;;;-141.84;75.20
15260;BME280;34462;51.368;12.364;2022-12-16T03:21:14;18553.97;;;-141.84;74.87
15260;BME280;34462;51.368;12.364;2022-12-16T03:23:49;18574.28;;;-141.84;75.35
15260;BME280;34462;51.368;12.364;2022-12-16T03:26:26;18553.97;;;-141.84;75.82
15260;BME280;34462;51.368;12.364;2022-12-16T03:29:02;18547.88;;;-141.84;76.07
15260;BME280;34462;51.368;12.364;2022-12-16T03:31:41;18547.88;;;-141.84;76.87
15260;BME280;34462;51.368;12.364;2022-12-16T03:34:18;18580.41;;;-141.84;77.27
15260;BME280;34462;51.368;12.364;2022-12-16T03:36:58;18594.63;;;-141.84;77.04
15260;BME280;34462;51.368;12.364;2022-12-16T03:39:28;18584.47;;;-141.84;77.25
15260;BME280;34462;51.368;12.364;2022-12-16T03:41:59;18547.88;;;-141.84;78.09
15260;BME280;34462;51.368;12.364;2022-12-16T03:44:28;18533.66;;;-141.84;77.53
15260;BME280;34462;51.368;12.364;2022-12-16T03:46:58;18553.97;;;-141.84;77.59
15260;BME280;34462;51.368;12.364;2022-12-16T03:49:27;18564.13;;;-141.84;78.43
15260;BME280;34462;51.368;12.364;2022-12-16T03:51:55;18529.59;;;-141.84;78.99
15260;BME280;34462;51.368;12.364;2022-12-16T03:54:24;18549.91;;;-141.84;79.40
15260;BME280;34462;51.368;12.364;2022-12-16T03:56:52;18566.16;;;-141.84;79.47
15260;BME280;34462;51.368;12.364;2022-12-16T03:59:20;18543.81;;;-141.84;79.93
15260;BME280;34462;51.368;12.364;2022-12-16T04:01:49;18535.69;;;-141.84;79.47
15260;BME280;34462;51.368;12.364;2022-12-16T04:04:17;18560.06;;;-141.84;78.75
15260;BME280;34462;51.368;12.364;2022-12-16T04:06:47;18543.81;;;-141.84;78.65
15260;BME280;34462;51.368;12.364;2022-12-16T04:09:35;18566.16;;;-141.84;78.48
15260;BME280;34462;51.368;12.364;2022-12-16T04:12:04;18525.53;;;-141.84;78.93
15260;BME280;34462;51.368;12.364;2022-12-16T04:14:52;18564.13;;;-141.84;78.61
15260;BME280;34462;51.368;12.364;2022-12-16T04:17:38;18519.44;;;-141.84;78.18
15260;BME280;34462;51.368;12.364;2022-12-16T04:20:29;18566.16;;;-141.84;77.74
15260;BME280;34462;51.368;12.364;2022-12-16T04:23:18;18564.13;;;-141.84;77.92
15260;BME280;34462;51.368;12.364;2022-12-16T04:26:04;18509.28;;;-141.84;78.08
15260;BME280;34462;51.368;12.364;2022-12-16T04:28:32;18568.19;;;-141.84;77.23
15260;BME280;34462;51.368;12.364;2022-12-16T04:31:01;18549.91;;;-141.84;77.32
15260;BME280;34462;51.368;12.364;2022-12-16T04:33:29;18537.72;;;-141.84;77.77
15260;BME280;34462;51.368;12.364;2022-12-16T04:36:15;18529.59;;;-141.84;77.33
15260;BME280;34462;51.368;12.364;2022-12-16T04:39:03;18531.63;;;-141.84;77.36
15260;BME280;34462;51.368;12.364;2022-12-16T04:41:51;18547.88;;;-141.84;78.21
15260;BME280;34462;51.368;12.364;2022-12-16T04:44:37;18539.75;;;-141.84;78.90
15260;BME280;34462;51.368;12.364;2022-12-16T04:47:23;18509.28;;;-141.84;79.19
15260;BME280;34462;51.368;12.364;2022-12-16T04:50:09;18547.88;;;-141.84;78.09
15260;BME280;34462;51.368;12.364;2022-12-16T04:52:55;18566.16;;;-141.84;77.09
15260;BME280;34462;51.368;12.364;2022-12-16T04:55:42;18553.97;;;-141.84;76.70
15260;BME280;34462;51.368;12.364;2022-12-16T04:58:36;18586.50;;;-141.84;76.21
15260;BME280;34462;51.368;12.364;2022-12-16T05:01:21;18543.81;;;-141.84;76.60
15260;BME280;34462;51.368;12.364;2022-12-16T05:04:07;18560.06;;;-141.84;76.68
15260;BME280;34462;51.368;12.364;2022-12-16T05:06:53;18523.50;;;-141.84;76.72
15260;BME280;34462;51.368;12.364;2022-12-16T05:09:39;18525.53;;;-141.84;76.65
15260;BME280;34462;51.368;12.364;2022-12-16T05:12:26;18543.81;;;-141.84;76.41
15260;BME280;34462;51.368;12.364;2022-12-16T05:15:11;18541.78;;;-141.84;76.71
15260;BME280;34462;51.368;12.364;2022-12-16T05:17:57;18572.25;;;-141.84;76.98
15260;BME280;34462;51.368;12.364;2022-12-16T05:20:43;18558.03;;;-141.84;76.26
15260;BME280;34462;51.368;12.364;2022-12-16T05:23:31;18549.91;;;-141.84;76.91
15260;BME280;34462;51.368;12.364;2022-12-16T05:26:16;18547.88;;;-141.84;77.87
15260;BME280;34462;51.368;12.364;2022-12-16T05:29:15;18558.03;;;-141.84;77.52
15260;BME280;34462;51.368;12.364;2022-12-16T05:32:01;18578.38;;;-141.84;76.82
15260;BME280;34462;51.368;12.364;2022-12-16T05:34:47;18543.81;;;-141.84;76.79
15260;BME280;34462;51.368;12.364;2022-12-16T05:37:33;18531.63;;;-141.84;76.58
15260;BME280;34462;51.368;12.364;2022-12-16T05:40:19;18584.47;;;-141.84;76.94
15260;BME280;34462;51.368;12.364;2022-12-16T05:43:04;18556.00;;;-141.84;77.00
15260;BME280;34462;51.368;12.364;2022-12-16T05:45:51;18523.50;;;-141.84;76.02
15260;BME280;34462;51.368;12.364;2022-12-16T05:48:37;18558.03;;;-141.84;76.72
15260;BME280;34462;51.368;12.364;2022-12-16T05:51:23;18574.28;;;-141.84;77.10
15260;BME280;34462;51.368;12.364;2022-12-16T05:54:09;18568.19;;;-141.84;77.18
15260;BME280;34462;51.368;12.364;2022-12-16T05:56:54;18547.88;;;-141.84;77.83
15260;BME280;34462;51.368;12.364;2022-12-16T05:59:40;18537.72;;;-141.84;77.71
15260;BME280;34462;51.368;12.364;2022-12-16T06:02:27;18543.81;;;-141.84;77.70
15260;BME280;34462;51.368;12.364;2022-12-16T06:05:13;18533.66;;;-141.84;77.33
15260;BME280;34462;51.368;12.364;2022-12-16T06:07:59;18541.78;;;-141.84;77.02
15260;BME280;34462;51.368;12.364;2022-12-16T06:10:45;18556.00;;;-141.84;76.68
15260;BME280;34462;51.368;12.364;2022-12-16T06:13:30;18566.16;;;-141.84;76.11
15260;BME280;34462;51.368;12.364;2022-12-16T06:16:16;18535.69;;;-141.84;76.22
15260;BME280;34462;51.368;12.364;2022-12-16T06:19:04;18533.66;;;-141.84;76.56
15260;BME280;34462;51.368;12.364;2022-12-16T06:21:49;18560.06;;;-141.84;77.21
15260;BME280;34462;51.368;12.364;2022-12-16T06:24:34;18566.16;;;-141.84;76.97
15260;BME280;34462;51.368;12.364;2022-12-16T06:27:20;18549.91;;;-141.84;76.06
15260;BME280;34462;51.368;12.364;2022-12-16T06:30:08;18572.25;;;-141.84;74.78
15260;BME280;34462;51.368;12.364;2022-12-16T06:32:53;18558.03;;;-141.84;75.31
15260;BME280;34462;51.368;12.364;2022-12-16T06:35:40;18562.09;;;-141.84;75.24
15260;BME280;34462;51.368;12.364;2022-12-16T06:38:26;18578.38;;;-141.84;75.19
15260;BME280;34462;51.368;12.364;2022-12-16T06:41:11;18596.66;;;-141.84;75.40
15260;BME280;34462;51.368;12.364;2022-12-16T06:43:57;18578.38;;;-141.84;75.68
15260;BME280;34462;51.368;12.364;2022-12-16T06:46:43;18564.13;;;-141.84;75.98
15260;BME280;34462;51.368;12.364;2022-12-16T06:49:29;18545.84;;;-141.84;76.60
15260;BME280;34462;51.368;12.364;2022-12-16T06:52:16;18545.84;;;-141.84;77.03
15260;BME280;34462;51.368;12.364;2022-12-16T06:55:02;18606.81;;;-141.84;77.27
15260;BME280;34462;51.368;12.364;2022-12-16T06:57:48;18533.66;;;-141.84;77.81
15260;BME280;34462;51.368;12.364;2022-12-16T07:00:36;18562.09;;;-141.84;77.97
15260;BME280;34462;51.368;12.364;2022-12-16T07:03:22;18553.97;;;-141.84;77.97
15260;BME280;34462;51.368;12.364;2022-12-16T07:06:08;18570.22;;;-141.84;77.91
15260;BME280;34462;51.368;12.364;2022-12-16T07:08:55;18560.06;;;-141.84;77.89
15260;BME280;34462;51.368;12.364;2022-12-16T07:11:41;18590.56;;;-141.84;78.20
15260;BME280;34462;51.368;12.364;2022-12-16T07:14:26;18533.66;;;-141.84;77.46
15260;BME280;34462;51.368;12.364;2022-12-16T07:17:12;18545.84;;;-141.84;76.80
15260;BME280;34462;51.368;12.364;2022-12-16T07:19:58;18549.91;;;-141.84;76.63
15260;BME280;34462;51.368;12.364;2022-12-16T07:22:44;18574.28;;;-141.84;77.34
15260;BME280;34462;51.368;12.364;2022-12-16T07:25:43;18586.50;;;-141.84;77.77
15260;BME280;34462;51.368;12.364;2022-12-16T07:28:28;18564.13;;;-141.84;77.55
15260;BME280;34462;51.368;12.364;2022-12-16T07:31:14;18535.69;;;-141.84;77.73
15260;BME280;34462;51.368;12.364;2022-12-16T07:34:00;18537.72;;;-141.84;77.99
15260;BME280;34462;51.368;12.364;2022-12-16T07:36:45;18582.44;;;-141.84;77.83
15260;BME280;34462;51.368;12.364;2022-12-16T07:39:31;18560.06;;;-141.84;77.67
15260;BME280;34462;51.368;12.364;2022-12-16T07:42:23;18588.53;;;-141.84;76.58
15260;BME280;34462;51.368;12.364;2022-12-16T07:45:09;18562.09;;;-141.84;76.26
15260;BME280;34462;51.368;12.364;2022-12-16T07:47:55;18558.03;;;-141.84;75.76
15260;BME280;34462;51.368;12.364;2022-12-16T07:50:46;18533.66;;;-141.84;75.66
15260;BME280;34462;51.368;12.364;2022-12-16T07:53:32;18570.22;;;-141.84;75.20
15260;BME280;34462;51.368;12.364;2022-12-16T07:56:18;18547.88;;;-141.84;75.29
15260;BME280;34462;51.368;12.364;2022-12-16T07:59:05;18570.22;;;-141.84;75.42
15260;BME280;34462;51.368;12.364;2022-12-16T08:01:50;18586.50;;;-141.84;75.45
15260;BME280;34462;51.368;12.364;2022-12-16T08:04:36;18549.91;;;-141.84;75.89
15260;BME280;34462;51.368;12.364;2022-12-16T08:07:22;18566.16;;;-141.84;76.00
15260;BME280;34462;51.368;12.364;2022-12-16T08:10:08;18547.88;;;-141.84;76.01
15260;BME280;34462;51.368;12.364;2022-12-16T08:12:59;18543.81;;;-141.84;75.80
15260;BME280;34462;51.368;12.364;2022-12-16T08:15:53;18553.97;;;-141.84;75.62
15260;BME280;34462;51.368;12.364;2022-12-16T08:18:39;18584.47;;;-141.84;75.49
15260;BME280;34462;51.368;12.364;2022-12-16T08:21:24;18606.81;;;-141.84;75.45
15260;BME280;34462;51.368;12.364;2022-12-16T08:24:10;18537.72;;;-141.84;75.47
15260;BME280;34462;51.368;12.364;2022-12-16T08:26:56;18570.22;;;-141.84;74.98
15260;BME280;34462;51.368;12.364;2022-12-16T08:29:41;18576.31;;;-141.84;74.92
15260;BME280;34462;51.368;12.364;2022-12-16T08:32:29;18582.44;;;-141.84;74.94
15260;BME280;34462;51.368;12.364;2022-12-16T08:35:14;18558.03;;;-141.84;74.53
15260;BME280;34462;51.368;12.364;2022-12-16T08:38:00;18549.91;;;-141.84;74.58
15260;BME280;34462;51.368;12.364;2022-12-16T08:40:46;18570.22;;;-141.84;74.52
15260;BME280;34462;51.368;12.364;2022-12-16T08:43:34;18553.97;;;-141.84;74.52
15260;BME280;34462;51.368;12.364;2022-12-16T08:46:20;18594.63;;;-141.84;74.87
15260;BME280;34462;51.368;12.364;2022-12-16T08:49:08;18582.44;;;-141.84;74.92
15260;BME280;34462;51.368;12.364;2022-12-16T08:51:54;18574.28;;;-141.84;75.19
15260;BME280;34462;51.368;12.364;2022-12-16T08:54:39;18572.25;;;-141.84;74.98
15260;BME280;34462;51.368;12.364;2022-12-16T08:57:25;18558.03;;;-141.84;74.94
15260;BME280;34462;51.368;12.364;2022-12-16T09:00:11;18594.63;;;-141.84;74.48
15260;BME280;34462;51.368;12.364;2022-12-16T09:02:59;18527.56;;;-141.84;74.85
15260;BME280;34462;51.368;12.364;2022-12-16T09:05:47;18547.88;;;-141.84;74.99
15260;BME280;34462;51.368;12.364;2022-12-16T09:08:32;18602.75;;;-141.84;74.87
15260;BME280;34462;51.368;12.364;2022-12-16T09:11:18;18543.81;;;-141.84;74.36
15260;BME280;34462;51.368;12.364;2022-12-16T09:14:04;18562.09;;;-141.84;74.22
15260;BME280;34462;51.368;12.364;2022-12-16T09:16:50;18578.38;;;-141.84;73.92
15260;BME280;34462;51.368;12.364;2022-12-16T09:19:35;18562.09;;;-141.84;73.50
15260;BME280;34462;51.368;12.364;2022-12-16T09:22:22;18582.44;;;-141.84;72.93
15260;BME280;34462;51.368;12.364;2022-12-16T09:25:08;18556.00;;;-141.84;72.68
15260;BME280;34462;51.368;12.364;2022-12-16T09:27:54;18594.63;;;-141.84;73.28
15260;BME280;34462;51.368;12.364;2022-12-16T09:30:39;18598.69;;;-141.84;73.05
15260;BME280;34462;51.368;12.364;2022-12-16T09:33:25;18600.72;;;-141.84;72.23
15260;BME280;34462;51.368;12.364;2022-12-16T09:36:10;18543.81;;;-141.84;71.95
15260;BME280;34462;51.368;12.364;2022-12-16T09:38:57;18570.22;;;-141.84;71.95
15260;BME280;34462;51.368;12.364;2022-12-16T09:41:44;18600.72;;;-141.84;72.11
15260;BME280;34462;51.368;12.364;2022-12-16T09:44:56;18590.56;;;-141.84;72.38
15260;BME280;34462;51.368;12.364;2022-12-16T09:47:55;18574.28;;;-141.84;72.06
15260;BME280;34462;51.368;12.364;2022-12-16T09:50:45;18588.53;;;-141.84;71.68
15260;BME280;34462;51.368;12.364;2022-12-16T09:53:35;18584.47;;;-141.84;71.22
15260;BME280;34462;51.368;12.364;2022-12-16T09:56:29;18610.88;;;-141.84;70.86
15260;BME280;34462;51.368;12.364;2022-12-16T09:59:21;18584.47;;;-141.84;71.16
15260;BME280;34462;51.368;12.364;2022-12-16T10:02:14;18590.56;;;-141.84;71.11
15260;BME280;34462;51.368;12.364;2022-12-16T10:05:09;18562.09;;;-141.84;70.80
15260;BME280;34462;51.368;12.364;2022-12-16T10:08:12;18596.66;;;-141.84;70.43
15260;BME280;34462;51.368;12.364;2022-12-16T10:11:12;18588.53;;;-141.84;70.64
15260;BME280;34462;51.368;12.364;2022-12-16T10:14:08;18588.53;;;-141.84;70.93
15260;BME280;34462;51.368;12.364;2022-12-16T10:17:06;18570.22;;;-141.84;71.11
15260;BME280;34462;51.368;12.364;2022-12-16T10:20:00;18621.03;;;-141.84;69.99
15260;BME280;34462;51.368;12.364;2022-12-16T10:22:56;18606.81;;;-141.84;69.96
15260;BME280;34462;51.368;12.364;2022-12-16T10:26:06;18594.63;;;-141.84;69.93
15260;BME280;34462;51.368;12.364;2022-12-16T10:29:05;18576.31;;;-141.84;69.76
15260;BME280;34462;51.368;12.364;2022-12-16T10:31:54;18608.84;;;-141.84;69.69
15260;BME280;34462;51.368;12.364;2022-12-16T10:34:40;18602.75;;;-141.84;70.12
15260;BME280;34462;51.368;12.364;2022-12-16T10:37:33;18612.91;;;-141.84;70.54
15260;BME280;34462;51.368;12.364;2022-12-16T10:40:24;18616.97;;;-141.84;70.90
15260;BME280;34462;51.368;12.364;2022-12-16T10:43:15;18600.72;;;-141.84;70.11
15260;BME280;34462;51.368;12.364;2022-12-16T10:46:11;18610.88;;;-141.84;69.80
15260;BME280;34462;51.368;12.364;2022-12-16T10:48:58;18631.19;;;-141.84;69.99
15260;BME280;34462;51.368;12.364;2022-12-16T10:51:44;18602.75;;;-141.84;69.90
15260;BME280;34462;51.368;12.364;2022-12-16T10:54:42;18584.47;;;-141.84;69.92
15260;BME280;34462;51.368;12.364;2022-12-16T10:57:41;18606.81;;;-141.84;69.96
15260;BME280;34462;51.368;12.364;2022-12-16T11:00:43;18602.75;;;-141.84;70.94
15260;BME280;34462;51.368;12.364;2022-12-16T11:03:33;18610.88;;;-141.84;69.81
15260;BME280;34462;51.368;12.364;2022-12-16T11:06:26;18608.84;;;-141.84;69.93
15260;BME280;34462;51.368;12.364;2022-12-16T11:09:20;18602.75;;;-141.84;70.04
15260;BME280;34462;51.368;12.364;2022-12-16T11:12:25;18612.91;;;-141.84;69.03
15260;BME280;34462;51.368;12.364;2022-12-16T11:15:25;18621.03;;;-141.84;68.72
15260;BME280;34462;51.368;12.364;2022-12-16T11:18:14;18619.00;;;-141.84;68.46
15260;BME280;34462;51.368;12.364;2022-12-16T11:21:13;18621.03;;;-141.84;68.92
15260;BME280;34462;51.368;12.364;2022-12-16T11:24:13;18584.47;;;-141.84;69.27
15260;BME280;34462;51.368;12.364;2022-12-16T11:27:01;18592.59;;;-141.84;69.69
15260;BME280;34462;51.368;12.364;2022-12-16T11:29:53;18584.47;;;-141.84;70.06
15260;BME280;34462;51.368;12.364;2022-12-16T11:32:42;18590.56;;;-141.84;70.01
15260;BME280;34462;51.368;12.364;2022-12-16T11:35:33;18598.69;;;-141.84;70.25
15260;BME280;34462;51.368;12.364;2022-12-16T11:38:32;18586.50;;;-141.84;69.87
15260;BME280;34462;51.368;12.364;2022-12-16T11:41:27;18606.81;;;-141.84;70.30
15260;BME280;34462;51.368;12.364;2022-12-16T11:44:20;18606.81;;;-141.84;70.67
15260;BME280;34462;51.368;12.364;2022-12-16T11:47:19;18598.69;;;-141.84;70.83
15260;BME280;34462;51.368;12.364;2022-12-16T11:50:14;18594.63;;;-141.84;71.29
15260;BME280;34462;51.368;12.364;2022-12-16T11:53:13;18610.88;;;-141.84;71.17
15260;BME280;34462;51.368;12.364;2022-12-16T11:56:11;18586.50;;;-141.84;71.38
15260;BME280;34462;51.368;12.364;2022-12-16T11:59:02;18602.75;;;-141.84;71.42
15260;BME280;34462;51.368;12.364;2022-12-16T12:02:14;18606.81;;;-141.84;71.30
15260;BME280;34462;51.368;12.364;2022-12-16T12:05:03;18602.75;;;-141.84;70.97
15260;BME280;34462;51.368;12.364;2022-12-16T12:08:11;18566.16;;;-141.84;71.50
15260;BME280;34462;51.368;12.364;2022-12-16T12:11:09;18598.69;;;-141.84;71.73
15260;BME280;34462;51.368;12.364;2022-12-16T12:14:11;18608.84;;;-141.84;71.60
15260;BME280;34462;51.368;12.364;2022-12-16T12:17:18;18619.00;;;-141.84;71.49
15260;BME280;34462;51.368;12.364;2022-12-16T12:20:31;18610.88;;;-141.84;69.59
15260;BME280;34462;51.368;12.364;2022-12-16T12:23:31;18612.91;;;-141.84;70.11
15260;BME280;34462;51.368;12.364;2022-12-16T12:26:29;18598.69;;;-141.84;71.40
15260;BME280;34462;51.368;12.364;2022-12-16T12:29:25;18606.81;;;-141.84;70.79
15260;BME280;34462;51.368;12.364;2022-12-16T12:32:26;18580.41;;;-141.84;71.23
15260;BME280;34462;51.368;12.364;2022-12-16T12:35:31;18570.22;;;-141.84;71.88
15260;BME280;34462;51.368;12.364;2022-12-16T12:38:30;18590.56;;;-141.84;72.08
15260;BME280;34462;51.368;12.364;2022-12-16T12:41:26;18596.66;;;-141.84;71.57
15260;BME280;34462;51.368;12.364;2022-12-16T12:44:25;18608.84;;;-141.84;70.16
15260;BME280;34462;51.368;12.364;2022-12-16T12:47:17;18606.81;;;-141.84;69.96
15260;BME280;34462;51.368;12.364;2022-12-16T12:50:08;18619.00;;;-141.84;70.94
15260;BME280;34462;51.368;12.364;2022-12-16T15:35:25;18547.88;;;-141.84;77.94
15260;BME280;34462;51.368;12.364;2022-12-16T15:38:21;18549.91;;;-141.84;78.14
15260;BME280;34462;51.368;12.364;2022-12-16T15:41:19;18499.13;;;-141.84;77.85
15260;BME280;34462;51.368;12.364;2022-12-16T15:44:14;18531.63;;;-141.84;77.71
15260;BME280;34462;51.368;12.364;2022-12-16T15:47:00;18541.78;;;-141.84;77.28
15260;BME280;34462;51.368;12.364;2022-12-16T15:50:02;18533.66;;;-141.84;77.40
15260;BME280;34462;51.368;12.364;2022-12-16T15:52:49;18533.66;;;-141.84;77.24
15260;BME280;34462;51.368;12.364;2022-12-16T15:55:39;18566.16;;;-141.84;77.44
15260;BME280;34462;51.368;12.364;2022-12-16T15:58:33;18521.47;;;-141.84;77.48
15260;BME280;34462;51.368;12.364;2022-12-16T16:01:41;18578.38;;;-141.84;77.62
15260;BME280;34462;51.368;12.364;2022-12-16T16:04:31;18521.47;;;-141.84;77.90
15260;BME280;34462;51.368;12.364;2022-12-16T16:07:23;18537.72;;;-141.84;78.11
15260;BME280;34462;51.368;12.364;2022-12-16T16:10:16;18529.59;;;-141.84;78.59
15260;BME280;34462;51.368;12.364;2022-12-16T16:13:03;18549.91;;;-141.84;78.71
15260;BME280;34462;51.368;12.364;2022-12-16T16:15:49;18543.81;;;-141.84;78.41
15260;BME280;34462;51.368;12.364;2022-12-16T16:18:35;18547.88;;;-141.84;78.15
15260;BME280;34462;51.368;12.364;2022-12-16T16:21:21;18560.06;;;-141.84;78.18
15260;BME280;34462;51.368;12.364;2022-12-16T16:24:07;18568.19;;;-141.84;78.24
15260;BME280;34462;51.368;12.364;2022-12-16T16:26:55;18529.59;;;-141.84;78.31
15260;BME280;34462;51.368;12.364;2022-12-16T16:29:42;18541.78;;;-141.84;78.94
15260;BME280;34462;51.368;12.364;2022-12-16T16:32:28;18562.09;;;-141.84;78.58
15260;BME280;34462;51.368;12.364;2022-12-16T16:35:14;18566.16;;;-141.84;78.92
15260;BME280;34462;51.368;12.364;2022-12-16T16:38:00;18499.13;;;-141.84;79.09
15260;BME280;34462;51.368;12.364;2022-12-16T16:40:57;18558.03;;;-141.84;78.93
15260;BME280;34462;51.368;12.364;2022-12-16T16:43:44;18553.97;;;-141.84;78.66
15260;BME280;34462;51.368;12.364;2022-12-16T16:46:33;18519.44;;;-141.84;78.85
15260;BME280;34462;51.368;12.364;2022-12-16T16:49:22;18553.97;;;-141.84;79.49